createdAt,value
2023-04-24T00:01:46.182Z,12.18
2023-04-24T00:04:15.365Z,12.14
2023-04-24T00:06:43.785Z,12.02
2023-04-24T00:09:11.115Z,11.94
2023-04-24T00:11:37.847Z,11.98
2023-04-24T00:14:04.412Z,11.91
2023-04-24T00:16:30.881Z,11.85
2023-04-24T00:18:57.372Z,11.84
2023-04-24T00:21:26.560Z,11.80
2023-04-24T00:23:53.921Z,11.77
2023-04-24T00:26:21.006Z,11.86
2023-04-24T00:28:47.501Z,11.89
2023-04-24T00:31:14.055Z,11.81
2023-04-24T00:33:40.941Z,11.74
2023-04-24T00:36:08.003Z,11.79
2023-04-24T00:38:34.647Z,11.85
2023-04-24T00:41:01.142Z,11.87
2023-04-24T00:43:27.664Z,11.91
2023-04-24T00:45:54.283Z,11.96
2023-04-24T00:48:21.478Z,12.15
2023-04-24T00:50:47.967Z,12.27
2023-04-24T00:53:14.488Z,12.35
2023-04-24T00:55:41.199Z,12.29
2023-04-24T00:58:07.675Z,12.19
2023-04-24T01:00:34.466Z,12.22
2023-04-24T01:03:02.986Z,12.17
2023-04-24T01:05:29.929Z,12.05
2023-04-24T01:07:56.996Z,12.08
2023-04-24T01:10:24.275Z,12.22
2023-04-24T01:12:51.714Z,12.17
2023-04-24T01:15:18.855Z,12.11
2023-04-24T01:17:46.110Z,12.09
2023-04-24T01:20:13.810Z,12.04
2023-04-24T01:22:41.406Z,12.04
2023-04-24T01:25:08.442Z,11.92
2023-04-24T01:27:35.536Z,11.83
2023-04-24T01:30:02.429Z,11.80
2023-04-24T01:32:29.263Z,11.81
2023-04-24T01:34:56.602Z,11.94
2023-04-24T01:37:23.671Z,12.02
2023-04-24T01:39:50.550Z,11.89
2023-04-24T01:42:17.757Z,11.99
2023-04-24T01:44:44.863Z,11.94
2023-04-24T01:47:12.442Z,11.87
2023-04-24T01:49:40.136Z,11.94
2023-04-24T01:52:06.957Z,12.08
2023-04-24T01:54:34.153Z,11.98
2023-04-24T01:57:02.045Z,11.98
2023-04-24T01:59:29.087Z,11.91
2023-04-24T02:01:55.726Z,11.89
2023-04-24T02:04:22.738Z,12.04
2023-04-24T02:06:49.564Z,12.22
2023-04-24T02:09:17.019Z,12.10
2023-04-24T02:11:44.467Z,12.15
2023-04-24T02:14:11.111Z,12.10
2023-04-24T02:16:37.582Z,12.09
2023-04-24T02:19:04.542Z,12.06
2023-04-24T02:21:32.072Z,12.04
2023-04-24T02:23:58.699Z,11.97
2023-04-24T02:26:25.959Z,12.13
2023-04-24T02:28:52.660Z,12.10
2023-04-24T02:31:19.213Z,12.08
2023-04-24T02:33:45.814Z,12.25
2023-04-24T02:36:12.498Z,12.16
2023-04-24T02:38:39.074Z,12.12
2023-04-24T02:41:07.227Z,12.15
2023-04-24T02:43:34.397Z,12.08
2023-04-24T02:46:01.031Z,12.05
2023-04-24T02:48:27.458Z,12.14
2023-04-24T02:50:54.150Z,12.20
2023-04-24T02:53:20.652Z,12.28
2023-04-24T02:55:47.180Z,12.09
2023-04-24T02:58:14.127Z,12.07
2023-04-24T03:00:40.924Z,12.04
2023-04-24T03:03:08.302Z,11.96
2023-04-24T03:05:35.017Z,12.00
2023-04-24T03:08:01.743Z,11.94
2023-04-24T03:10:28.232Z,11.98
2023-04-24T03:12:56.041Z,12.07
2023-04-24T03:15:22.796Z,11.94
2023-04-24T03:17:49.283Z,12.04
2023-04-24T03:20:15.822Z,12.08
2023-04-24T03:22:42.254Z,12.20
2023-04-24T03:25:10.459Z,12.33
2023-04-24T03:27:37.147Z,12.33
2023-04-24T03:30:04.145Z,12.33
2023-04-24T03:32:31.350Z,12.32
2023-04-24T03:34:57.993Z,12.27
2023-04-24T03:37:24.489Z,12.23
2023-04-24T03:39:51.028Z,12.35
2023-04-24T03:42:17.556Z,12.37
2023-04-24T03:44:44.330Z,12.38
2023-04-24T03:47:11.053Z,12.42
2023-04-24T03:49:37.718Z,12.43
2023-04-24T03:52:04.270Z,12.53
2023-04-24T03:54:30.919Z,12.49
2023-04-24T03:56:57.476Z,12.57
2023-04-24T03:59:23.961Z,12.56
2023-04-24T04:01:51.183Z,12.56
2023-04-24T04:04:17.960Z,12.52
2023-04-24T04:06:45.206Z,12.63
2023-04-24T04:09:11.826Z,12.59
2023-04-24T04:11:38.318Z,12.74
2023-04-24T04:14:04.893Z,12.64
2023-04-24T04:16:31.391Z,12.67
2023-04-24T04:18:57.908Z,12.66
2023-04-24T04:21:24.480Z,12.73
2023-04-24T04:23:51.028Z,12.72
2023-04-24T04:26:17.447Z,12.73
2023-04-24T04:28:45.891Z,12.72
2023-04-24T04:31:13.865Z,12.86
2023-04-24T04:33:40.791Z,12.78
2023-04-24T04:36:07.560Z,12.77
2023-04-24T04:38:34.656Z,12.92
2023-04-24T04:41:01.619Z,12.82
2023-04-24T04:43:28.320Z,12.90
2023-04-24T04:45:55.909Z,12.87
2023-04-24T04:48:23.244Z,12.79
2023-04-24T04:50:49.723Z,12.88
2023-04-24T04:53:16.148Z,12.96
2023-04-24T04:55:42.904Z,12.91
2023-04-24T04:58:09.398Z,13.00
2023-04-24T05:00:38.398Z,13.11
2023-04-24T05:03:19.290Z,13.28
2023-04-24T05:05:47.945Z,13.40
2023-04-24T05:08:25.736Z,13.38
2023-04-24T05:10:54.246Z,13.41
2023-04-24T05:13:28.443Z,13.54
2023-04-24T05:15:59.216Z,13.53
2023-04-24T05:18:25.820Z,13.51
2023-04-24T05:20:52.268Z,13.57
2023-04-24T05:23:18.685Z,13.79
2023-04-24T05:25:45.395Z,14.01
2023-04-24T05:28:11.876Z,14.16
2023-04-24T05:30:38.435Z,14.27
2023-04-24T05:33:04.969Z,14.14
2023-04-24T05:35:31.436Z,14.25
2023-04-24T05:37:58.067Z,14.26
2023-04-24T05:40:24.690Z,14.27
2023-04-24T05:42:51.131Z,14.48
2023-04-24T05:45:18.732Z,14.68
2023-04-24T05:47:45.970Z,14.83
2023-04-24T05:50:12.841Z,14.97
2023-04-24T05:52:39.437Z,14.96
2023-04-24T05:55:06.419Z,15.13
2023-04-24T05:57:32.916Z,15.06
2023-04-24T05:59:59.428Z,15.30
2023-04-24T06:02:26.030Z,15.02
2023-04-24T06:04:52.918Z,14.97
2023-04-24T06:07:19.436Z,15.12
2023-04-24T06:09:45.966Z,15.01
2023-04-24T06:12:12.429Z,15.21
2023-04-24T06:14:38.977Z,14.97
2023-04-24T06:17:05.713Z,14.77
2023-04-24T06:19:32.124Z,15.02
2023-04-24T06:21:59.301Z,15.35
2023-04-24T06:24:29.482Z,15.48
2023-04-24T06:26:58.153Z,16.17
2023-04-24T06:29:24.725Z,16.60
2023-04-24T06:31:51.237Z,16.99
2023-04-24T06:34:17.707Z,17.02
2023-04-24T06:36:44.229Z,17.60
2023-04-24T06:39:10.857Z,17.43
2023-04-24T06:41:37.387Z,17.27
2023-04-24T06:44:03.809Z,17.08
2023-04-24T06:46:30.843Z,18.03
2023-04-24T06:48:57.411Z,17.90
2023-04-24T06:51:27.629Z,18.54
2023-04-24T06:53:54.617Z,18.59
2023-04-24T06:56:21.976Z,18.30
2023-04-24T06:58:49.012Z,18.43
2023-04-24T07:01:15.898Z,18.73
2023-04-24T07:03:43.285Z,18.50
2023-04-24T07:06:12.171Z,18.93
2023-04-24T07:08:38.688Z,19.71
2023-04-24T07:11:05.441Z,20.91
2023-04-24T07:13:31.840Z,20.72
2023-04-24T07:15:58.369Z,19.92
2023-04-24T07:18:25.059Z,19.01
2023-04-24T07:20:51.846Z,19.53
2023-04-24T07:23:18.969Z,18.82
2023-04-24T07:25:45.653Z,18.29
2023-04-24T07:28:12.167Z,18.71
2023-04-24T07:30:38.599Z,19.43
2023-04-24T07:33:05.103Z,19.01
2023-04-24T07:35:31.746Z,18.21
2023-04-24T07:37:58.579Z,18.27
2023-04-24T07:40:25.096Z,18.58
2023-04-24T07:42:51.804Z,17.83
2023-04-24T07:45:18.258Z,17.78
2023-04-24T07:47:46.564Z,18.08
2023-04-24T07:50:14.053Z,18.34
2023-04-24T07:52:40.563Z,18.02
2023-04-24T07:55:08.062Z,18.54
2023-04-24T07:57:34.762Z,18.71
2023-04-24T08:00:02.017Z,18.09
2023-04-24T08:02:28.953Z,17.32
2023-04-24T08:04:56.303Z,17.82
2023-04-24T08:07:24.584Z,17.90
2023-04-24T08:09:51.040Z,18.17
2023-04-24T08:12:17.459Z,18.39
2023-04-24T08:14:44.101Z,18.57
2023-04-24T08:17:10.948Z,19.10
2023-04-24T08:19:37.436Z,19.57
2023-04-24T08:22:05.164Z,18.93
2023-04-24T08:24:31.638Z,18.05
2023-04-24T08:26:58.947Z,17.70
2023-04-24T08:29:25.865Z,17.49
2023-04-24T08:31:52.597Z,17.46
2023-04-24T08:34:19.015Z,17.35
2023-04-24T08:36:47.552Z,16.81
2023-04-24T08:39:15.273Z,16.77
2023-04-24T08:41:44.282Z,17.03
2023-04-24T08:44:11.924Z,17.10
2023-04-24T08:46:38.537Z,17.33
2023-04-24T08:49:05.780Z,17.42
2023-04-24T08:51:32.271Z,17.22
2023-04-24T08:53:58.911Z,17.45
2023-04-24T08:56:25.738Z,17.49
2023-04-24T08:58:52.902Z,17.49
2023-04-24T09:01:21.013Z,17.39
2023-04-24T09:03:50.556Z,17.09
2023-04-24T09:06:18.846Z,17.24
2023-04-24T09:08:46.489Z,17.60
2023-04-24T09:11:13.207Z,17.82
2023-04-24T09:13:40.398Z,18.55
2023-04-24T09:16:07.239Z,18.43
2023-04-24T09:18:34.689Z,18.29
2023-04-24T09:21:03.663Z,17.35
2023-04-24T09:23:32.010Z,17.21
2023-04-24T09:26:01.095Z,17.54
2023-04-24T09:28:31.007Z,17.57
2023-04-24T09:31:24.195Z,17.45
2023-04-24T09:34:01.505Z,17.89
2023-04-24T09:36:38.080Z,18.38
2023-04-24T09:39:06.471Z,17.61
2023-04-24T09:41:33.817Z,17.35
2023-04-24T09:44:17.173Z,17.40
2023-04-24T09:46:45.770Z,17.23
2023-04-24T09:49:17.527Z,17.35
2023-04-24T09:51:44.605Z,17.31
2023-04-24T09:54:16.710Z,17.86
2023-04-24T09:56:45.609Z,17.47
2023-04-24T09:59:13.340Z,17.31
2023-04-24T10:01:43.012Z,17.08
2023-04-24T10:04:29.934Z,17.18
2023-04-24T10:06:57.560Z,16.95
2023-04-24T10:09:26.513Z,16.79
2023-04-24T10:11:54.718Z,16.90
2023-04-24T10:14:22.989Z,17.09
2023-04-24T10:16:50.459Z,17.83
2023-04-24T10:19:19.653Z,17.38
2023-04-24T10:21:49.599Z,17.21
2023-04-24T10:24:18.220Z,17.02
2023-04-24T10:26:46.184Z,17.31
2023-04-24T10:29:13.965Z,17.40
2023-04-24T10:31:41.148Z,18.38
2023-04-24T10:34:08.901Z,19.75
2023-04-24T10:36:36.690Z,20.89
2023-04-24T10:39:05.972Z,21.56
2023-04-24T10:41:32.378Z,22.68
2023-04-24T10:44:13.289Z,21.06
2023-04-24T10:46:44.341Z,19.39
2023-04-24T10:49:10.974Z,18.90
2023-04-24T10:51:49.057Z,18.51
2023-04-24T10:54:42.305Z,17.96
2023-04-24T10:57:21.741Z,18.21
2023-04-24T10:59:52.838Z,18.01
2023-04-24T11:02:19.761Z,18.77
2023-04-24T11:04:47.308Z,18.52
2023-04-24T11:07:14.094Z,17.74
2023-04-24T11:09:43.874Z,17.54
2023-04-24T11:12:11.952Z,17.25
2023-04-24T11:14:56.882Z,17.05
2023-04-24T11:17:35.071Z,16.92
2023-04-24T11:20:22.867Z,16.87
2023-04-24T11:22:55.680Z,16.62
2023-04-24T11:25:23.719Z,16.57
2023-04-24T11:27:51.174Z,16.82
2023-04-24T11:30:21.582Z,17.00
2023-04-24T11:32:54.340Z,17.24
2023-04-24T11:35:26.037Z,16.99
2023-04-24T11:38:18.777Z,16.89
2023-04-24T11:40:40.996Z,16.62
2023-04-24T11:43:08.500Z,16.86
2023-04-24T11:45:35.239Z,17.39
2023-04-24T11:48:04.065Z,17.75
2023-04-24T11:50:30.707Z,17.54
2023-04-24T11:52:57.667Z,17.41
2023-04-24T11:55:29.086Z,17.36
2023-04-24T11:58:00.171Z,17.16
2023-04-24T12:00:29.365Z,16.82
2023-04-24T12:03:10.098Z,16.48
2023-04-24T12:05:37.273Z,16.26
2023-04-24T12:08:04.031Z,16.28
2023-04-24T12:10:32.110Z,16.15
2023-04-24T12:12:59.337Z,16.27
2023-04-24T12:15:26.995Z,16.32
2023-04-24T12:17:54.844Z,16.52
2023-04-24T12:20:31.455Z,17.00
2023-04-24T12:22:59.827Z,17.24
2023-04-24T12:25:32.246Z,16.87
2023-04-24T12:28:04.887Z,16.94
2023-04-24T12:30:33.444Z,16.93
2023-04-24T12:33:01.346Z,16.91
2023-04-24T12:35:29.836Z,17.02
2023-04-24T12:37:56.386Z,17.08
2023-04-24T12:40:23.150Z,17.35
2023-04-24T12:42:51.668Z,17.59
2023-04-24T12:45:19.865Z,17.24
2023-04-24T12:47:47.172Z,17.10
2023-04-24T12:50:16.009Z,17.06
2023-04-24T12:52:43.061Z,16.61
2023-04-24T12:55:10.287Z,16.63
2023-04-24T12:57:38.952Z,16.72
2023-04-24T13:00:07.541Z,17.25
2023-04-24T13:02:35.336Z,18.00
2023-04-24T13:05:02.465Z,17.86
2023-04-24T13:07:29.115Z,17.72
2023-04-24T13:09:56.883Z,18.17
2023-04-24T13:12:27.837Z,19.44
2023-04-24T13:14:54.665Z,19.74
2023-04-24T13:17:21.483Z,19.91
2023-04-24T13:19:50.175Z,20.73
2023-04-24T13:22:16.811Z,19.54
2023-04-24T13:24:43.362Z,19.63
2023-04-24T13:27:10.678Z,19.94
2023-04-24T13:29:38.121Z,19.04
2023-04-24T13:32:04.713Z,19.00
2023-04-24T13:34:31.571Z,18.93
2023-04-24T13:36:59.442Z,18.46
2023-04-24T13:39:27.090Z,18.54
2023-04-24T13:41:54.360Z,18.68
2023-04-24T13:44:21.769Z,19.33
2023-04-24T13:46:49.581Z,19.41
2023-04-24T13:49:16.737Z,19.51
2023-04-24T13:51:44.006Z,18.74
2023-04-24T13:54:10.560Z,18.42
2023-04-24T13:56:36.995Z,18.48
2023-04-24T13:59:03.852Z,18.11
2023-04-24T14:01:30.484Z,18.31
2023-04-24T14:03:57.572Z,18.05
2023-04-24T14:06:24.602Z,18.44
2023-04-24T14:08:51.608Z,18.78
2023-04-24T14:11:18.775Z,18.96
2023-04-24T14:13:46.513Z,18.87
2023-04-24T14:16:14.046Z,18.66
2023-04-24T14:18:41.059Z,18.24
2023-04-24T14:21:07.839Z,18.25
2023-04-24T14:23:34.336Z,18.44
2023-04-24T14:26:00.930Z,18.32
2023-04-24T14:28:27.651Z,18.38
2023-04-24T14:30:54.406Z,18.49
2023-04-24T14:33:20.930Z,19.00
2023-04-24T14:35:47.458Z,18.87
2023-04-24T14:38:14.074Z,18.75
2023-04-24T14:43:10.759Z,18.02
2023-04-24T14:45:38.089Z,18.19
2023-04-24T14:48:04.803Z,18.18
2023-04-24T14:50:31.473Z,17.91
2023-04-24T14:53:02.963Z,17.99
2023-04-24T14:55:29.869Z,17.72
2023-04-24T14:57:56.567Z,17.78
2023-04-24T15:00:24.957Z,18.07
2023-04-24T15:02:51.826Z,17.89
2023-04-24T15:05:18.826Z,17.42
2023-04-24T15:07:46.401Z,17.52
2023-04-24T15:10:13.072Z,17.71
2023-04-24T15:12:39.953Z,17.60
2023-04-24T15:15:07.199Z,17.66
2023-04-24T15:17:33.752Z,17.67
2023-04-24T15:20:01.816Z,17.54
2023-04-24T15:22:28.574Z,17.48
2023-04-24T15:24:55.091Z,17.15
2023-04-24T15:27:21.593Z,16.68
2023-04-24T15:29:48.098Z,16.71
2023-04-24T15:32:14.604Z,16.64
2023-04-24T15:34:41.345Z,16.60
2023-04-24T15:37:07.881Z,16.67
2023-04-24T15:39:34.294Z,16.64
2023-04-24T15:42:01.640Z,16.46
2023-04-24T15:44:28.168Z,16.41
2023-04-24T15:46:56.261Z,16.33
2023-04-24T15:49:22.939Z,16.33
2023-04-24T15:51:49.441Z,16.32
2023-04-24T15:54:15.943Z,16.23
2023-04-24T15:56:42.655Z,16.11
2023-04-24T15:59:09.408Z,16.13
2023-04-24T16:01:36.026Z,15.99
2023-04-24T16:04:03.011Z,15.95
2023-04-24T16:06:29.603Z,15.93
2023-04-24T16:08:58.506Z,15.65
2023-04-24T16:11:26.321Z,15.65
2023-04-24T16:13:52.870Z,15.64
2023-04-24T16:16:19.457Z,15.62
2023-04-24T16:18:46.419Z,15.65
2023-04-24T16:21:13.202Z,15.46
2023-04-24T16:23:39.697Z,15.51
2023-04-24T16:26:06.234Z,15.52
2023-04-24T16:28:32.838Z,15.49
2023-04-24T16:30:59.650Z,15.39
2023-04-24T16:33:26.489Z,15.28
2023-04-24T16:35:53.245Z,15.26
2023-04-24T16:38:20.075Z,15.07
2023-04-24T16:40:46.528Z,14.89
2023-04-24T16:43:12.949Z,14.84
2023-04-24T16:45:39.461Z,14.82
2023-04-24T16:48:06.221Z,14.77
2023-04-24T16:50:33.161Z,14.83
2023-04-24T16:52:59.665Z,14.92
2023-04-24T16:55:26.394Z,14.88
2023-04-24T16:57:53.203Z,14.83
2023-04-24T17:00:19.949Z,14.99
2023-04-24T17:02:48.962Z,15.04
2023-04-24T17:05:15.849Z,14.92
2023-04-24T17:07:42.550Z,14.87
2023-04-24T17:10:09.463Z,14.82
2023-04-24T17:12:35.908Z,14.64
2023-04-24T17:15:02.564Z,14.63
2023-04-24T17:17:29.053Z,14.38
2023-04-24T17:19:55.564Z,14.24
2023-04-24T17:22:22.169Z,14.22
2023-04-24T17:24:48.661Z,14.13
2023-04-24T17:27:15.694Z,14.06
2023-04-24T17:29:42.466Z,13.95
2023-04-24T17:32:09.893Z,13.92
2023-04-24T17:34:36.462Z,13.92
2023-04-24T17:37:04.872Z,13.84
2023-04-24T17:39:31.366Z,13.81
2023-04-24T17:41:58.260Z,13.79
2023-04-24T17:44:25.087Z,13.75
2023-04-24T17:46:51.726Z,13.76
2023-04-24T17:49:18.286Z,13.66
2023-04-24T17:51:44.935Z,13.65
2023-04-24T17:54:12.314Z,13.69
2023-04-24T17:56:38.734Z,13.64
2023-04-24T17:59:05.246Z,13.65
2023-04-24T18:01:31.838Z,13.50
2023-04-24T18:03:58.562Z,13.43
2023-04-24T18:06:25.291Z,13.30
2023-04-24T18:08:51.749Z,13.09
2023-04-24T18:11:18.458Z,13.02
2023-04-24T18:13:46.572Z,12.80
2023-04-24T18:16:13.178Z,12.67
2023-04-24T18:18:39.815Z,12.64
2023-04-24T18:21:06.399Z,12.55
2023-04-24T18:23:33.066Z,12.37
2023-04-24T18:25:59.494Z,12.35
2023-04-24T18:28:25.964Z,12.24
2023-04-24T18:30:52.618Z,12.13
2023-04-24T18:33:19.092Z,12.04
2023-04-24T18:35:45.745Z,11.92
2023-04-24T18:38:12.295Z,11.88
2023-04-24T18:40:39.050Z,11.82
2023-04-24T18:43:06.306Z,11.83
2023-04-24T18:45:32.902Z,11.68
2023-04-24T18:47:59.430Z,11.68
2023-04-24T18:50:27.703Z,11.66
2023-04-24T18:52:54.273Z,11.66
2023-04-24T18:55:21.013Z,11.63
2023-04-24T18:57:47.824Z,11.68
2023-04-24T19:00:14.632Z,11.65
2023-04-24T19:02:41.423Z,11.60
2023-04-24T19:05:10.335Z,11.65
2023-04-24T19:07:36.952Z,11.62
2023-04-24T19:10:03.984Z,11.67
2023-04-24T19:12:30.618Z,11.73
2023-04-24T19:14:57.985Z,11.72
2023-04-24T19:17:25.519Z,11.66
2023-04-24T19:19:52.357Z,11.65
2023-04-24T19:22:20.498Z,11.63
2023-04-24T19:24:47.664Z,11.61
2023-04-24T19:27:14.436Z,11.63
2023-04-24T19:29:42.133Z,11.61
2023-04-24T19:32:09.015Z,11.54
2023-04-24T19:34:36.725Z,11.46
2023-04-24T19:37:04.666Z,11.29
2023-04-24T19:39:32.437Z,11.23
2023-04-24T19:42:00.305Z,11.17
2023-04-24T19:44:26.893Z,11.12
2023-04-24T19:46:53.572Z,11.06
2023-04-24T19:49:20.041Z,11.08
2023-04-24T19:51:46.564Z,10.95
2023-04-24T19:54:13.930Z,10.90
2023-04-24T19:56:40.537Z,10.79
2023-04-24T19:59:07.734Z,10.74
2023-04-24T20:01:34.319Z,10.62
2023-04-24T20:04:01.999Z,10.62
2023-04-24T20:06:29.646Z,10.74
2023-04-24T20:08:56.644Z,10.80
2023-04-24T20:11:23.197Z,10.76
2023-04-24T20:13:49.807Z,10.86
2023-04-24T20:16:16.678Z,10.80
2023-04-24T20:18:43.440Z,10.88
2023-04-24T20:21:09.889Z,10.85
2023-04-24T20:23:37.460Z,10.85
2023-04-24T20:26:04.983Z,10.67
2023-04-24T20:28:31.618Z,10.63
2023-04-24T20:30:59.036Z,10.54
2023-04-24T20:33:28.022Z,10.50
2023-04-24T20:35:54.654Z,10.45
2023-04-24T20:38:22.585Z,10.33
2023-04-24T20:40:57.629Z,10.32
2023-04-24T20:43:28.368Z,10.24
2023-04-24T20:45:56.381Z,10.18
2023-04-24T20:48:23.094Z,10.11
2023-04-24T20:50:50.188Z,10.11
2023-04-24T20:53:16.705Z,10.05
2023-04-24T20:55:43.282Z,10.05
2023-04-24T20:58:09.993Z,10.09
2023-04-24T21:00:36.474Z,10.05
2023-04-24T21:03:03.305Z,10.13
2023-04-24T21:05:29.872Z,10.06
2023-04-24T21:07:56.502Z,10.01
2023-04-24T21:10:24.187Z,9.99
2023-04-24T21:12:51.121Z,9.99
2023-04-24T21:15:18.162Z,9.93
2023-04-24T21:17:44.936Z,9.94
2023-04-24T21:20:11.753Z,9.90
2023-04-24T21:22:38.224Z,9.95
2023-04-24T21:25:05.368Z,9.95
2023-04-24T21:27:32.249Z,9.95
2023-04-24T21:29:58.761Z,9.88
2023-04-24T21:32:25.400Z,9.77
2023-04-24T21:34:52.294Z,9.67
2023-04-24T21:37:18.845Z,9.58
2023-04-24T21:39:45.414Z,9.53
2023-04-24T21:42:11.979Z,9.51
2023-04-24T21:44:38.623Z,9.43
2023-04-24T21:47:05.674Z,9.33
2023-04-24T21:49:32.136Z,9.25
2023-04-24T21:51:58.694Z,9.28
2023-04-24T21:54:25.253Z,9.26
2023-04-24T21:56:51.794Z,9.37
2023-04-24T21:59:18.419Z,9.39
2023-04-24T22:01:44.935Z,9.42
2023-04-24T22:04:11.872Z,9.48
2023-04-24T22:06:38.855Z,9.45
2023-04-24T22:09:05.921Z,9.45
2023-04-24T22:11:32.533Z,9.53
2023-04-24T22:13:59.209Z,9.49
2023-04-24T22:16:25.793Z,9.48
2023-04-24T22:18:55.589Z,9.42
2023-04-24T22:21:22.843Z,9.38
2023-04-24T22:23:49.655Z,9.29
2023-04-24T22:26:16.715Z,9.30
2023-04-24T22:28:43.150Z,9.20
2023-04-24T22:31:10.025Z,9.08
2023-04-24T22:33:36.678Z,9.01
2023-04-24T22:36:03.394Z,8.86
2023-04-24T22:38:29.814Z,8.82
2023-04-24T22:40:56.380Z,8.81
2023-04-24T22:43:22.872Z,8.81
2023-04-24T22:45:49.343Z,8.79
2023-04-24T22:48:16.389Z,8.79
2023-04-24T22:50:42.814Z,8.81
2023-04-24T22:53:09.369Z,8.70
2023-04-24T22:55:36.740Z,8.63
2023-04-24T22:58:03.204Z,8.63
2023-04-24T23:00:29.715Z,8.48
2023-04-24T23:02:56.244Z,8.40
2023-04-24T23:05:25.085Z,8.20
2023-04-24T23:07:51.920Z,8.07
2023-04-24T23:10:18.604Z,8.01
2023-04-24T23:12:45.083Z,7.92
2023-04-24T23:15:12.288Z,7.81
2023-04-24T23:17:39.087Z,7.76
2023-04-24T23:20:06.347Z,7.70
2023-04-24T23:22:33.667Z,7.69
2023-04-24T23:25:01.517Z,7.68
2023-04-24T23:27:28.895Z,7.69
2023-04-24T23:29:55.605Z,7.71
2023-04-24T23:32:22.492Z,7.75
2023-04-24T23:34:49.452Z,7.85
2023-04-24T23:37:19.093Z,8.08
2023-04-24T23:39:45.928Z,8.20
2023-04-24T23:42:12.681Z,8.23
2023-04-24T23:44:39.277Z,8.23
2023-04-24T23:47:05.868Z,8.27
2023-04-24T23:49:32.842Z,8.24
2023-04-24T23:51:59.301Z,8.18
2023-04-24T23:54:26.391Z,8.18
2023-04-24T23:56:52.821Z,8.19
2023-04-24T23:59:22.555Z,8.31
